createdAt,value
2019-03-13T00:01:03.780Z,5.20
2019-03-13T00:03:10.444Z,5.20
2019-03-13T00:05:15.424Z,5.20
2019-03-13T00:07:20.584Z,5.20
2019-03-13T00:09:25.346Z,5.20
2019-03-13T00:11:30.105Z,5.30
2019-03-13T00:13:35.171Z,5.30
2019-03-13T00:15:40.394Z,5.20
2019-03-13T00:17:45.531Z,5.30
2019-03-13T00:19:50.286Z,5.30
2019-03-13T00:21:55.596Z,5.30
2019-03-13T00:24:00.737Z,5.30
2019-03-13T00:26:06.113Z,5.30
2019-03-13T00:28:11.109Z,5.30
2019-03-13T00:30:33.154Z,5.30
2019-03-13T00:32:40.541Z,5.30
2019-03-13T00:34:48.759Z,5.30
2019-03-13T00:36:59.362Z,5.30
2019-03-13T00:39:05.773Z,5.30
2019-03-13T00:41:10.981Z,5.30
2019-03-13T00:43:15.706Z,5.20
2019-03-13T00:45:20.509Z,5.20
2019-03-13T00:47:25.734Z,5.20
2019-03-13T00:49:38.412Z,5.20
2019-03-13T00:51:43.231Z,5.10
2019-03-13T00:53:47.921Z,5.10
2019-03-13T00:55:52.720Z,5.20
2019-03-13T00:57:57.933Z,5.20
2019-03-13T01:00:02.779Z,5.20
2019-03-13T01:02:44.305Z,5.20
2019-03-13T01:04:53.932Z,5.20
2019-03-13T01:07:09.843Z,5.20
2019-03-13T01:09:15.054Z,5.20
2019-03-13T01:11:19.786Z,5.20
2019-03-13T01:13:25.011Z,5.30
2019-03-13T01:15:29.867Z,5.30
2019-03-13T01:17:34.651Z,5.30
2019-03-13T01:19:39.494Z,5.30
2019-03-13T01:21:44.218Z,5.40
2019-03-13T01:23:49.368Z,5.30
2019-03-13T01:25:54.582Z,5.30
2019-03-13T01:27:59.821Z,5.30
2019-03-13T01:30:05.051Z,5.20
2019-03-13T01:32:31.504Z,5.20
2019-03-13T01:34:39.323Z,5.20
2019-03-13T01:36:44.154Z,5.10
2019-03-13T01:38:48.979Z,5.20
2019-03-13T01:40:54.235Z,5.20
2019-03-13T01:42:59.299Z,5.20
2019-03-13T01:45:04.367Z,5.20
2019-03-13T01:47:10.112Z,5.30
2019-03-13T01:49:26.631Z,5.40
2019-03-13T01:51:31.659Z,5.40
2019-03-13T01:53:36.730Z,5.40
2019-03-13T01:55:41.937Z,5.30
2019-03-13T01:57:46.907Z,5.30
2019-03-13T01:59:58.735Z,5.20
2019-03-13T02:02:04.628Z,5.10
2019-03-13T02:04:10.107Z,5.10
2019-03-13T02:06:15.996Z,5.10
2019-03-13T02:08:21.258Z,5.00
2019-03-13T02:10:26.654Z,5.00
2019-03-13T02:12:31.684Z,5.00
2019-03-13T02:14:36.460Z,4.90
2019-03-13T02:16:42.069Z,4.90
2019-03-13T02:18:46.930Z,4.80
2019-03-13T02:20:52.559Z,4.80
2019-03-13T02:22:57.474Z,4.80
2019-03-13T02:25:02.960Z,4.80
2019-03-13T02:27:08.217Z,4.80
2019-03-13T02:29:13.205Z,4.80
2019-03-13T02:31:19.116Z,4.80
2019-03-13T02:33:25.353Z,4.70
2019-03-13T02:35:31.570Z,4.70
2019-03-13T02:37:36.348Z,4.70
2019-03-13T02:39:41.590Z,4.70
2019-03-13T02:41:47.129Z,4.60
2019-03-13T02:43:51.985Z,4.60
2019-03-13T02:45:56.814Z,4.60
2019-03-13T02:48:03.721Z,4.60
2019-03-13T02:50:09.131Z,4.50
2019-03-13T02:52:13.990Z,4.50
2019-03-13T02:54:18.799Z,4.60
2019-03-13T02:56:23.744Z,4.50
2019-03-13T02:58:28.619Z,4.60
2019-03-13T03:00:53.718Z,4.70
2019-03-13T03:03:00.753Z,4.70
2019-03-13T03:05:06.843Z,4.70
2019-03-13T03:07:13.036Z,4.60
2019-03-13T03:09:18.243Z,4.70
2019-03-13T03:11:23.094Z,4.70
2019-03-13T03:13:29.017Z,4.70
2019-03-13T03:15:35.539Z,4.70
2019-03-13T03:17:40.317Z,4.80
2019-03-13T03:19:45.118Z,4.80
2019-03-13T03:21:50.402Z,4.80
2019-03-13T03:23:55.170Z,4.80
2019-03-13T03:26:00.662Z,4.90
2019-03-13T03:28:05.624Z,5.00
2019-03-13T03:30:15.669Z,5.10
2019-03-13T03:32:20.776Z,5.10
2019-03-13T03:34:25.601Z,5.10
2019-03-13T03:36:31.422Z,5.20
2019-03-13T03:38:37.157Z,5.10
2019-03-13T03:40:41.913Z,5.10
2019-03-13T03:42:47.209Z,5.10
2019-03-13T03:44:52.004Z,5.10
2019-03-13T03:46:56.786Z,5.20
2019-03-13T03:49:01.700Z,5.30
2019-03-13T03:51:06.413Z,5.30
2019-03-13T03:53:11.259Z,5.30
2019-03-13T03:55:16.805Z,5.30
2019-03-13T03:57:21.936Z,5.40
2019-03-13T03:59:26.759Z,5.40
2019-03-13T04:01:31.827Z,5.40
2019-03-13T04:03:36.933Z,5.40
2019-03-13T04:05:41.948Z,5.40
2019-03-13T04:07:46.845Z,5.40
2019-03-13T04:09:51.666Z,5.40
2019-03-13T04:11:56.632Z,5.40
2019-03-13T04:14:02.243Z,5.30
2019-03-13T04:16:10.671Z,5.30
2019-03-13T04:18:15.487Z,5.30
2019-03-13T04:20:20.732Z,5.30
2019-03-13T04:22:26.144Z,5.40
2019-03-13T04:24:32.096Z,5.40
2019-03-13T04:26:37.876Z,5.40
2019-03-13T04:28:42.987Z,5.30
2019-03-13T04:30:48.314Z,5.30
2019-03-13T04:32:53.697Z,5.30
2019-03-13T04:34:58.897Z,5.40
2019-03-13T04:37:04.260Z,5.40
2019-03-13T04:39:09.099Z,5.40
2019-03-13T04:41:13.853Z,5.50
2019-03-13T04:43:19.656Z,5.60
2019-03-13T04:45:48.079Z,5.60
2019-03-13T04:47:54.471Z,5.60
2019-03-13T04:49:59.337Z,5.60
2019-03-13T04:52:04.559Z,5.60
2019-03-13T04:54:09.706Z,5.70
2019-03-13T04:56:45.324Z,5.70
2019-03-13T04:58:50.116Z,5.70
2019-03-13T05:00:55.585Z,5.80
2019-03-13T05:03:02.430Z,5.80
2019-03-13T05:05:07.643Z,5.70
2019-03-13T05:07:12.410Z,5.70
2019-03-13T05:09:23.255Z,5.70
2019-03-13T05:11:31.240Z,5.80
2019-03-13T05:13:36.039Z,5.80
2019-03-13T05:15:40.974Z,5.80
2019-03-13T05:17:45.894Z,5.80
2019-03-13T05:19:50.703Z,5.80
2019-03-13T05:21:55.448Z,5.80
2019-03-13T05:24:00.620Z,5.80
2019-03-13T05:26:05.476Z,5.80
2019-03-13T05:28:10.616Z,5.80
2019-03-13T05:30:15.655Z,5.80
2019-03-13T05:32:20.442Z,5.80
2019-03-13T05:34:25.316Z,5.90
2019-03-13T05:36:30.020Z,5.90
2019-03-13T05:38:34.711Z,5.90
2019-03-13T05:40:39.541Z,5.90
2019-03-13T05:42:44.660Z,5.90
2019-03-13T05:44:49.472Z,6.00
2019-03-13T05:46:54.653Z,6.00
2019-03-13T05:48:59.546Z,6.00
2019-03-13T05:51:04.856Z,6.00
2019-03-13T05:53:09.661Z,6.10
2019-03-13T05:55:14.425Z,6.10
2019-03-13T05:57:21.833Z,6.10
2019-03-13T05:59:26.618Z,6.10
2019-03-13T06:01:31.519Z,6.10
2019-03-13T06:03:37.149Z,6.10
2019-03-13T06:05:41.994Z,6.00
2019-03-13T06:07:46.804Z,6.10
2019-03-13T06:09:51.561Z,6.10
2019-03-13T06:11:57.087Z,6.10
2019-03-13T06:14:02.280Z,6.10
2019-03-13T06:16:10.907Z,6.10
2019-03-13T06:18:15.854Z,6.10
2019-03-13T06:20:21.184Z,6.10
2019-03-13T06:22:26.086Z,6.10
2019-03-13T06:24:31.671Z,6.10
2019-03-13T06:26:36.519Z,6.10
2019-03-13T06:28:41.799Z,6.20
2019-03-13T06:30:47.546Z,6.10
2019-03-13T06:32:55.909Z,6.10
2019-03-13T06:35:00.888Z,6.10
2019-03-13T06:37:05.722Z,6.10
2019-03-13T06:39:12.283Z,6.10
2019-03-13T06:41:17.099Z,6.10
2019-03-13T06:43:21.916Z,6.10
2019-03-13T06:45:26.663Z,6.10
2019-03-13T06:47:31.442Z,6.10
2019-03-13T06:49:36.642Z,6.10
2019-03-13T06:51:41.412Z,6.20
2019-03-13T06:53:47.095Z,6.20
2019-03-13T06:55:51.933Z,6.20
2019-03-13T06:57:57.946Z,6.30
2019-03-13T07:00:37.014Z,6.30
2019-03-13T07:02:48.644Z,6.40
2019-03-13T07:05:07.369Z,6.40
2019-03-13T07:07:30.348Z,6.60
2019-03-13T07:09:47.018Z,6.50
2019-03-13T07:12:00.291Z,6.50
2019-03-13T07:14:15.606Z,6.40
2019-03-13T07:16:40.723Z,6.20
2019-03-13T07:19:04.377Z,6.20
2019-03-13T07:21:28.047Z,6.10
2019-03-13T07:23:54.526Z,6.10
2019-03-13T07:26:18.644Z,6.10
2019-03-13T07:28:38.230Z,6.20
2019-03-13T07:30:53.842Z,6.30
2019-03-13T07:33:17.858Z,6.30
2019-03-13T07:35:38.202Z,6.40
2019-03-13T07:38:11.228Z,6.40
2019-03-13T07:40:37.994Z,6.40
2019-03-13T07:43:04.438Z,6.40
2019-03-13T07:45:34.429Z,6.40
2019-03-13T07:48:16.764Z,6.40
2019-03-13T07:50:53.207Z,6.40
2019-03-13T07:53:19.913Z,6.60
2019-03-13T07:55:58.757Z,6.60
2019-03-13T07:58:22.533Z,6.80
2019-03-13T08:00:58.792Z,6.70
2019-03-13T08:03:22.519Z,6.70
2019-03-13T08:05:52.093Z,6.80
2019-03-13T08:08:16.172Z,7.00
2019-03-13T08:10:30.164Z,7.00
2019-03-13T08:13:08.806Z,7.10
2019-03-13T08:15:31.617Z,7.10
2019-03-13T08:17:58.017Z,7.30
2019-03-13T08:20:20.426Z,7.40
2019-03-13T08:22:44.188Z,7.30
2019-03-13T08:25:08.173Z,7.40
2019-03-13T08:27:38.513Z,7.30
2019-03-13T08:29:57.186Z,7.30
2019-03-13T08:32:20.274Z,7.50
2019-03-13T08:34:53.483Z,7.40
2019-03-13T08:37:20.178Z,7.40
2019-03-13T08:39:31.927Z,7.50
2019-03-13T08:41:52.683Z,7.60
2019-03-13T08:44:28.761Z,7.80
2019-03-13T08:47:04.527Z,8.10
2019-03-13T08:49:19.275Z,8.10
2019-03-13T08:51:34.373Z,7.40
2019-03-13T08:53:58.111Z,7.00
2019-03-13T08:56:21.764Z,6.80
2019-03-13T08:58:57.398Z,6.60
2019-03-13T09:01:19.819Z,6.60
2019-03-13T09:03:32.341Z,6.70
2019-03-13T09:05:59.030Z,6.90
2019-03-13T09:08:21.386Z,6.90
2019-03-13T09:10:39.382Z,6.50
2019-03-13T09:12:50.738Z,6.40
2019-03-13T09:15:01.151Z,6.20
2019-03-13T09:17:24.775Z,6.10
2019-03-13T09:19:54.725Z,6.10
2019-03-13T09:22:17.542Z,6.20
2019-03-13T09:24:27.829Z,6.60
2019-03-13T09:26:50.262Z,6.80
2019-03-13T09:29:12.600Z,7.00
2019-03-13T09:31:43.598Z,7.20
2019-03-13T09:34:06.096Z,7.20
2019-03-13T09:36:36.487Z,7.20
2019-03-13T09:39:15.494Z,7.40
2019-03-13T09:41:26.886Z,7.90
2019-03-13T09:43:38.180Z,8.20
2019-03-13T09:46:00.463Z,8.10
2019-03-13T09:48:30.123Z,7.60
2019-03-13T09:50:42.620Z,7.30
2019-03-13T09:52:56.141Z,7.30
2019-03-13T09:55:25.633Z,7.40
2019-03-13T09:57:45.098Z,7.50
2019-03-13T10:00:11.772Z,7.50
2019-03-13T10:02:25.437Z,7.60
2019-03-13T10:04:42.868Z,7.70
2019-03-13T10:07:12.674Z,7.80
2019-03-13T10:09:26.584Z,8.30
2019-03-13T10:12:02.180Z,9.20
2019-03-13T10:14:44.311Z,9.50
2019-03-13T10:17:17.079Z,9.20
2019-03-13T10:19:43.247Z,8.70
2019-03-13T10:22:05.298Z,8.40
2019-03-13T10:24:19.552Z,8.30
2019-03-13T10:26:34.803Z,8.20
2019-03-13T10:29:01.237Z,8.20
2019-03-13T10:31:29.179Z,8.20
2019-03-13T10:33:59.185Z,8.30
2019-03-13T10:36:31.854Z,8.50
2019-03-13T10:38:55.584Z,8.80
2019-03-13T10:41:25.266Z,8.60
2019-03-13T10:43:48.258Z,8.30
2019-03-13T10:46:02.049Z,8.20
2019-03-13T10:48:31.904Z,8.00
2019-03-13T10:51:07.632Z,8.20
2019-03-13T10:53:46.487Z,8.50
2019-03-13T10:56:16.568Z,8.80
2019-03-13T10:58:40.390Z,8.70
2019-03-13T11:01:03.340Z,8.40
2019-03-13T11:03:29.931Z,8.50
2019-03-13T11:05:52.284Z,8.30
2019-03-13T11:08:05.276Z,8.30
2019-03-13T11:10:20.217Z,8.30
2019-03-13T11:12:53.595Z,8.70
2019-03-13T11:15:06.448Z,8.80
2019-03-13T11:17:28.751Z,8.60
2019-03-13T11:19:55.408Z,8.40
2019-03-13T11:22:16.775Z,8.20
2019-03-13T11:24:35.557Z,8.20
2019-03-13T11:27:08.012Z,8.10
2019-03-13T11:29:37.685Z,8.30
2019-03-13T11:32:04.321Z,8.50
2019-03-13T11:34:46.626Z,8.60
2019-03-13T11:37:25.336Z,8.90
2019-03-13T11:39:51.782Z,9.20
2019-03-13T11:42:30.589Z,9.10
2019-03-13T11:44:58.090Z,9.00
2019-03-13T11:47:37.510Z,8.80
2019-03-13T11:50:01.667Z,8.80
2019-03-13T11:52:31.375Z,8.40
2019-03-13T11:54:55.021Z,8.20
2019-03-13T11:57:15.176Z,7.90
2019-03-13T11:59:47.879Z,7.70
2019-03-13T12:02:10.057Z,7.50
2019-03-13T12:04:34.710Z,7.60
2019-03-13T12:07:16.438Z,7.60
2019-03-13T12:09:46.069Z,7.70
2019-03-13T12:12:12.298Z,7.70
2019-03-13T12:14:29.247Z,7.60
2019-03-13T12:16:44.667Z,7.50
2019-03-13T12:19:04.907Z,7.60
2019-03-13T12:21:27.143Z,7.50
2019-03-13T12:23:41.346Z,7.60
2019-03-13T12:26:13.880Z,7.60
2019-03-13T12:28:37.706Z,7.60
2019-03-13T12:31:01.520Z,7.50
2019-03-13T12:33:28.208Z,7.40
2019-03-13T12:35:51.871Z,7.30
2019-03-13T12:38:05.275Z,7.20
2019-03-13T12:40:28.136Z,7.10
2019-03-13T12:43:00.555Z,7.20
2019-03-13T12:45:20.091Z,7.30
2019-03-13T12:47:39.209Z,7.40
2019-03-13T12:50:01.640Z,7.60
2019-03-13T12:52:34.846Z,7.80
2019-03-13T12:54:57.924Z,7.80
2019-03-13T12:57:21.695Z,7.90
2019-03-13T13:00:04.018Z,8.00
2019-03-13T13:02:25.484Z,8.40
2019-03-13T13:04:42.617Z,8.30
2019-03-13T13:06:59.736Z,8.00
2019-03-13T13:09:38.541Z,8.00
2019-03-13T13:12:12.517Z,7.80
2019-03-13T13:14:24.349Z,7.70
2019-03-13T13:17:03.442Z,7.80
2019-03-13T13:19:08.618Z,8.30
2019-03-13T13:21:13.361Z,8.80
2019-03-13T13:23:18.325Z,8.80
2019-03-13T13:25:23.042Z,8.70
2019-03-13T13:27:27.969Z,8.50
2019-03-13T13:29:32.825Z,8.40
2019-03-13T13:31:37.625Z,8.20
2019-03-13T13:33:42.395Z,7.90
2019-03-13T13:35:47.188Z,7.70
2019-03-13T13:37:52.236Z,7.60
2019-03-13T13:39:57.789Z,7.40
2019-03-13T13:42:02.945Z,7.40
2019-03-13T13:44:09.968Z,7.50
2019-03-13T13:46:26.587Z,7.70
2019-03-13T13:48:32.219Z,7.80
2019-03-13T13:50:37.005Z,8.20
2019-03-13T13:52:42.140Z,8.20
2019-03-13T13:54:47.023Z,8.10
2019-03-13T13:56:52.253Z,8.20
2019-03-13T13:58:57.019Z,8.40
2019-03-13T14:01:06.897Z,8.50
2019-03-13T14:03:11.990Z,8.40
2019-03-13T14:05:19.061Z,8.20
2019-03-13T14:07:23.841Z,8.40
2019-03-13T14:09:30.033Z,8.30
2019-03-13T14:11:34.814Z,8.10
2019-03-13T14:13:39.548Z,7.90
2019-03-13T14:15:44.481Z,7.80
2019-03-13T14:17:49.250Z,7.70
2019-03-13T14:19:53.969Z,7.70
2019-03-13T14:21:58.746Z,7.70
2019-03-13T14:24:03.455Z,7.70
2019-03-13T14:26:08.308Z,7.50
2019-03-13T14:28:16.540Z,7.40
2019-03-13T14:30:21.509Z,7.30
2019-03-13T14:32:27.260Z,7.20
2019-03-13T14:34:32.146Z,7.20
2019-03-13T14:36:37.411Z,7.10
2019-03-13T14:38:42.488Z,7.10
2019-03-13T14:40:47.383Z,7.10
2019-03-13T14:42:54.723Z,7.10
2019-03-13T14:44:59.565Z,7.10
2019-03-13T14:47:05.805Z,7.10
2019-03-13T14:49:18.938Z,7.00
2019-03-13T14:51:23.772Z,7.00
2019-03-13T14:53:29.182Z,7.00
2019-03-13T14:55:34.167Z,7.00
2019-03-13T14:57:38.987Z,7.00
2019-03-13T14:59:43.883Z,7.10
2019-03-13T15:01:49.061Z,7.00
2019-03-13T15:03:53.944Z,7.00
2019-03-13T15:05:59.304Z,7.00
2019-03-13T15:08:04.081Z,7.00
2019-03-13T15:10:10.268Z,7.00
2019-03-13T15:12:15.548Z,7.00
2019-03-13T15:14:20.537Z,6.90
2019-03-13T15:16:27.940Z,6.90
2019-03-13T15:18:36.212Z,6.90
2019-03-13T15:20:41.845Z,6.90
2019-03-13T15:23:07.384Z,6.80
2019-03-13T15:25:11.670Z,6.60
2019-03-13T15:27:16.797Z,6.50
2019-03-13T15:29:22.429Z,6.40
2019-03-13T15:31:27.519Z,6.40
2019-03-13T15:33:32.508Z,6.40
2019-03-13T15:35:39.255Z,6.40
2019-03-13T15:37:44.772Z,6.40
2019-03-13T15:39:50.107Z,6.40
2019-03-13T15:41:54.820Z,6.50
2019-03-13T15:43:59.644Z,6.40
2019-03-13T15:46:04.396Z,6.30
2019-03-13T15:48:09.196Z,6.30
2019-03-13T15:50:14.607Z,6.20
2019-03-13T15:52:19.355Z,6.20
2019-03-13T15:54:24.698Z,6.10
2019-03-13T15:56:29.804Z,6.10
2019-03-13T15:58:34.600Z,6.10
2019-03-13T16:00:39.317Z,6.10
2019-03-13T16:02:44.157Z,6.00
2019-03-13T16:04:49.611Z,6.10
2019-03-13T16:07:00.308Z,6.10
2019-03-13T16:09:17.785Z,6.10
2019-03-13T16:11:22.928Z,6.10
2019-03-13T16:13:27.776Z,6.10
2019-03-13T16:15:34.425Z,6.20
2019-03-13T16:17:39.540Z,6.30
2019-03-13T16:19:44.504Z,6.40
2019-03-13T16:21:49.332Z,6.40
2019-03-13T16:23:55.067Z,6.50
2019-03-13T16:26:00.491Z,6.50
2019-03-13T16:28:06.670Z,6.70
2019-03-13T16:30:15.951Z,6.70
2019-03-13T16:32:21.117Z,6.70
2019-03-13T16:34:25.964Z,6.90
2019-03-13T16:36:31.245Z,6.90
2019-03-13T16:38:36.278Z,6.90
2019-03-13T16:40:41.026Z,6.90
2019-03-13T16:42:45.863Z,6.90
2019-03-13T16:44:50.757Z,6.90
2019-03-13T16:46:56.648Z,6.90
2019-03-13T16:49:01.574Z,6.80
2019-03-13T16:51:07.120Z,6.80
2019-03-13T16:53:12.229Z,6.70
2019-03-13T16:55:18.167Z,6.70
2019-03-13T16:57:23.335Z,6.60
2019-03-13T16:59:28.283Z,6.60
2019-03-13T17:01:33.209Z,6.60
2019-03-13T17:03:38.338Z,6.60
2019-03-13T17:05:43.162Z,6.50
2019-03-13T17:07:49.863Z,6.50
2019-03-13T17:09:54.573Z,6.50
2019-03-13T17:11:59.371Z,6.60
2019-03-13T17:14:04.639Z,6.60
2019-03-13T17:16:09.539Z,6.60
2019-03-13T17:18:14.305Z,6.50
2019-03-13T17:20:21.404Z,6.40
2019-03-13T17:22:26.416Z,6.40
2019-03-13T17:24:31.144Z,6.30
2019-03-13T17:26:35.979Z,6.30
2019-03-13T17:28:43.838Z,6.30
2019-03-13T17:30:48.640Z,6.30
2019-03-13T17:32:53.639Z,6.30
2019-03-13T17:34:58.949Z,6.20
2019-03-13T17:37:05.344Z,6.00
2019-03-13T17:39:10.191Z,5.90
2019-03-13T17:41:15.064Z,5.80
2019-03-13T17:43:20.025Z,5.80
2019-03-13T17:45:25.133Z,5.90
2019-03-13T17:47:29.889Z,6.10
2019-03-13T17:49:34.797Z,6.30
2019-03-13T17:51:42.240Z,6.40
2019-03-13T17:53:47.926Z,6.40
2019-03-13T17:55:58.989Z,6.40
2019-03-13T17:58:04.845Z,6.40
2019-03-13T18:00:21.298Z,6.30
2019-03-13T18:02:26.189Z,6.30
2019-03-13T18:04:44.194Z,6.30
2019-03-13T18:06:49.105Z,6.20
2019-03-13T18:08:54.406Z,6.20
2019-03-13T18:11:00.502Z,6.20
2019-03-13T18:13:05.311Z,6.20
2019-03-13T18:15:10.625Z,6.20
2019-03-13T18:17:15.447Z,6.10
2019-03-13T18:19:20.247Z,6.10
2019-03-13T18:21:25.076Z,6.10
2019-03-13T18:23:31.006Z,6.10
2019-03-13T18:25:39.696Z,6.10
2019-03-13T18:27:44.591Z,6.20
2019-03-13T18:29:49.851Z,6.20
2019-03-13T18:31:54.738Z,6.20
2019-03-13T18:33:59.969Z,6.20
2019-03-13T18:36:04.988Z,6.20
2019-03-13T18:38:10.801Z,6.20
2019-03-13T18:40:16.407Z,6.20
2019-03-13T18:42:21.255Z,6.10
2019-03-13T18:44:26.193Z,6.10
2019-03-13T18:46:31.176Z,6.10
2019-03-13T18:48:36.122Z,6.10
2019-03-13T18:50:41.485Z,6.10
2019-03-13T18:52:47.220Z,6.10
2019-03-13T18:54:52.655Z,6.10
2019-03-13T18:56:58.715Z,6.10
2019-03-13T18:59:03.743Z,6.10
2019-03-13T19:01:13.479Z,6.00
2019-03-13T19:03:25.077Z,6.10
2019-03-13T19:05:38.115Z,6.10
2019-03-13T19:07:50.166Z,6.10
2019-03-13T19:10:03.472Z,6.00
2019-03-13T19:12:20.393Z,6.10
2019-03-13T19:17:45.350Z,5.90
2019-03-13T19:19:51.545Z,5.90
2019-03-13T19:22:21.176Z,5.80
2019-03-13T19:24:31.439Z,5.80
2019-03-13T19:26:36.706Z,5.70
2019-03-13T19:28:43.477Z,5.70
2019-03-13T19:30:52.734Z,5.70
2019-03-13T19:33:05.490Z,5.70
2019-03-13T19:35:15.624Z,5.60
2019-03-13T19:37:20.669Z,5.60
2019-03-13T19:39:32.097Z,5.50
2019-03-13T19:41:39.972Z,5.50
2019-03-13T19:43:44.926Z,5.50
2019-03-13T19:45:53.653Z,5.40
2019-03-13T19:48:01.276Z,5.40
2019-03-13T19:50:06.043Z,5.40
2019-03-13T19:52:11.010Z,5.40
2019-03-13T19:54:15.964Z,5.40
2019-03-13T19:56:21.094Z,5.40
2019-03-13T19:58:26.643Z,5.30
2019-03-13T20:00:31.899Z,5.40
2019-03-13T20:02:36.885Z,5.40
2019-03-13T20:04:47.279Z,5.40
2019-03-13T20:06:48.813Z,5.40
2019-03-13T20:08:56.748Z,5.40
2019-03-13T20:11:02.674Z,5.50
2019-03-13T20:13:07.837Z,5.40
2019-03-13T20:15:14.437Z,5.40
2019-03-13T20:17:19.499Z,5.50
2019-03-13T20:19:24.638Z,5.50
2019-03-13T20:21:31.174Z,5.50
2019-03-13T20:23:37.655Z,5.50
2019-03-13T20:25:42.876Z,5.50
2019-03-13T20:27:47.860Z,5.50
2019-03-13T20:29:53.070Z,5.50
2019-03-13T20:31:58.235Z,5.50
2019-03-13T20:34:03.478Z,5.50
2019-03-13T20:36:08.855Z,5.50
2019-03-13T20:38:14.114Z,5.50
2019-03-13T20:40:20.577Z,5.60
2019-03-13T20:42:25.661Z,5.50
2019-03-13T20:44:34.025Z,5.50
2019-03-13T20:46:39.624Z,5.50
2019-03-13T20:48:44.797Z,5.50
2019-03-13T20:50:50.309Z,5.40
2019-03-13T20:52:55.750Z,5.40
2019-03-13T20:55:00.805Z,5.40
2019-03-13T20:57:10.779Z,5.40
2019-03-13T20:59:14.323Z,5.40
2019-03-13T21:01:20.755Z,5.40
2019-03-13T21:03:26.001Z,5.40
2019-03-13T21:05:31.158Z,5.50
2019-03-13T21:07:36.188Z,5.50
2019-03-13T21:09:41.497Z,5.50
2019-03-13T21:11:46.631Z,5.40
2019-03-13T21:13:52.272Z,5.40
2019-03-13T21:15:57.973Z,5.40
2019-03-13T21:18:03.019Z,5.40
2019-03-13T21:20:08.961Z,5.30
2019-03-13T21:22:20.546Z,5.30
2019-03-13T21:24:27.691Z,5.30
2019-03-13T21:28:49.038Z,5.30
2019-03-13T21:31:06.838Z,5.30
2019-03-13T21:33:14.734Z,5.40
2019-03-13T21:35:27.639Z,5.30
2019-03-13T21:37:33.369Z,5.30
2019-03-13T21:39:41.593Z,5.20
2019-03-13T21:41:50.101Z,5.30
2019-03-13T21:43:55.761Z,5.20
2019-03-13T21:46:02.904Z,5.30
2019-03-13T21:48:09.709Z,5.30
2019-03-13T21:50:16.643Z,5.20
2019-03-13T21:52:22.625Z,5.20
2019-03-13T21:54:28.113Z,5.20
2019-03-13T21:56:48.081Z,5.20
2019-03-13T21:58:53.539Z,5.20
2019-03-13T22:01:02.288Z,5.30
2019-03-13T22:03:07.555Z,5.40
2019-03-13T22:05:25.116Z,5.40
2019-03-13T22:07:19.690Z,5.40
2019-03-13T22:09:25.031Z,5.50
2019-03-13T22:11:30.288Z,5.50
2019-03-13T22:13:44.284Z,5.50
2019-03-13T22:15:53.524Z,5.50
2019-03-13T22:17:59.307Z,5.50
2019-03-13T22:20:05.982Z,5.50
2019-03-13T22:22:13.810Z,5.50
2019-03-13T22:24:18.899Z,5.40
2019-03-13T22:26:27.579Z,5.40
2019-03-13T22:28:33.078Z,5.40
2019-03-13T22:30:43.107Z,5.40
2019-03-13T22:32:48.495Z,5.40
2019-03-13T22:34:53.688Z,5.30
2019-03-13T22:36:59.140Z,5.30
2019-03-13T22:39:06.471Z,5.30
2019-03-13T22:41:12.311Z,5.20
2019-03-13T22:43:18.105Z,5.30
2019-03-13T22:45:23.485Z,5.40
2019-03-13T22:47:41.612Z,5.50
2019-03-13T22:49:35.910Z,5.50
2019-03-13T22:51:40.933Z,5.50
2019-03-13T22:53:45.785Z,5.50
2019-03-13T22:55:50.647Z,5.50
2019-03-13T22:57:55.775Z,5.50
2019-03-13T23:00:00.773Z,5.60
2019-03-13T23:02:07.868Z,5.60
2019-03-13T23:04:13.194Z,5.60
2019-03-13T23:06:20.582Z,5.70
2019-03-13T23:08:25.897Z,5.70
2019-03-13T23:10:33.854Z,5.70
2019-03-13T23:12:39.480Z,5.70
2019-03-13T23:14:47.019Z,5.70
2019-03-13T23:16:52.411Z,5.70
2019-03-13T23:18:57.764Z,5.70
2019-03-13T23:21:02.672Z,5.70
2019-03-13T23:23:07.724Z,5.80
2019-03-13T23:25:12.718Z,5.80
2019-03-13T23:27:17.666Z,5.80
2019-03-13T23:29:23.664Z,5.80
2019-03-13T23:31:28.719Z,5.90
2019-03-13T23:33:33.936Z,5.90
2019-03-13T23:35:39.402Z,5.90
2019-03-13T23:37:44.525Z,5.90
2019-03-13T23:39:49.427Z,5.80
2019-03-13T23:41:55.120Z,5.80
2019-03-13T23:44:00.072Z,5.80
2019-03-13T23:46:05.164Z,5.80
2019-03-13T23:48:10.773Z,5.80
2019-03-13T23:50:16.454Z,5.80
2019-03-13T23:52:22.101Z,5.90
2019-03-13T23:54:27.351Z,5.90
2019-03-13T23:56:33.777Z,5.90
2019-03-13T23:58:38.847Z,5.90
